sensor_id;sensor_type;location;lat;lon;timestamp;P1;durP1;ratioP1;P2;durP2;ratioP2
45642;SDS011;31358;46.008;11.144;2023-07-02T00:01:47;7.18;;;4.95;;
45642;SDS011;31358;46.008;11.144;2023-07-02T00:04:14;9.02;;;5.60;;
45642;SDS011;31358;46.008;11.144;2023-07-02T00:06:48;6.93;;;4.85;;
45642;SDS011;31358;46.008;11.144;2023-07-02T00:09:15;5.97;;;4.20;;
45642;SDS011;31358;46.008;11.144;2023-07-02T00:11:42;7.95;;;5.00;;
45642;SDS011;31358;46.008;11.144;2023-07-02T00:14:10;8.52;;;5.13;;
45642;SDS011;31358;46.008;11.144;2023-07-02T00:16:37;6.95;;;4.78;;
45642;SDS011;31358;46.008;11.144;2023-07-02T00:19:05;9.60;;;5.03;;
45642;SDS011;31358;46.008;11.144;2023-07-02T00:21:31;6.13;;;4.55;;
45642;SDS011;31358;46.008;11.144;2023-07-02T00:23:58;6.47;;;4.32;;
45642;SDS011;31358;46.008;11.144;2023-07-02T00:26:24;7.40;;;4.82;;
45642;SDS011;31358;46.008;11.144;2023-07-02T00:28:52;7.28;;;5.05;;
45642;SDS011;31358;46.008;11.144;2023-07-02T00:31:19;7.70;;;4.93;;
45642;SDS011;31358;46.008;11.144;2023-07-02T00:33:45;12.05;;;5.22;;
45642;SDS011;31358;46.008;11.144;2023-07-02T00:36:11;10.77;;;5.32;;
45642;SDS011;31358;46.008;11.144;2023-07-02T00:38:43;8.68;;;5.22;;
45642;SDS011;31358;46.008;11.144;2023-07-02T00:41:11;7.93;;;5.95;;
45642;SDS011;31358;46.008;11.144;2023-07-02T00:43:37;8.52;;;4.50;;
45642;SDS011;31358;46.008;11.144;2023-07-02T00:46:13;6.40;;;4.78;;
45642;SDS011;31358;46.008;11.144;2023-07-02T00:48:54;7.00;;;5.00;;
45642;SDS011;31358;46.008;11.144;2023-07-02T00:51:21;6.15;;;5.03;;
45642;SDS011;31358;46.008;11.144;2023-07-02T00:53:51;12.80;;;5.75;;
45642;SDS011;31358;46.008;11.144;2023-07-02T00:56:19;6.82;;;4.60;;
45642;SDS011;31358;46.008;11.144;2023-07-02T00:58:46;6.30;;;4.88;;
45642;SDS011;31358;46.008;11.144;2023-07-02T01:01:19;6.63;;;4.88;;
45642;SDS011;31358;46.008;11.144;2023-07-02T01:03:56;8.20;;;6.22;;
45642;SDS011;31358;46.008;11.144;2023-07-02T01:09:02;7.70;;;5.07;;
45642;SDS011;31358;46.008;11.144;2023-07-02T01:11:39;8.07;;;5.80;;
45642;SDS011;31358;46.008;11.144;2023-07-02T01:14:11;8.77;;;5.45;;
45642;SDS011;31358;46.008;11.144;2023-07-02T01:16:47;7.65;;;5.40;;
45642;SDS011;31358;46.008;11.144;2023-07-02T01:19:19;7.25;;;5.20;;
45642;SDS011;31358;46.008;11.144;2023-07-02T01:22:06;6.13;;;4.35;;
45642;SDS011;31358;46.008;11.144;2023-07-02T01:24:32;9.18;;;5.93;;
45642;SDS011;31358;46.008;11.144;2023-07-02T01:26:59;12.57;;;5.20;;
45642;SDS011;31358;46.008;11.144;2023-07-02T01:29:28;8.45;;;4.93;;
45642;SDS011;31358;46.008;11.144;2023-07-02T01:31:55;6.60;;;4.78;;
45642;SDS011;31358;46.008;11.144;2023-07-02T01:34:21;10.32;;;5.40;;
45642;SDS011;31358;46.008;11.144;2023-07-02T01:36:46;7.40;;;5.53;;
45642;SDS011;31358;46.008;11.144;2023-07-02T01:39:12;8.95;;;6.15;;
45642;SDS011;31358;46.008;11.144;2023-07-02T01:41:42;8.95;;;6.35;;
45642;SDS011;31358;46.008;11.144;2023-07-02T01:44:15;9.05;;;6.25;;
45642;SDS011;31358;46.008;11.144;2023-07-02T01:46:40;9.45;;;5.82;;
45642;SDS011;31358;46.008;11.144;2023-07-02T01:49:06;8.57;;;5.65;;
45642;SDS011;31358;46.008;11.144;2023-07-02T01:51:32;8.77;;;5.65;;
45642;SDS011;31358;46.008;11.144;2023-07-02T01:53:59;7.93;;;5.22;;
45642;SDS011;31358;46.008;11.144;2023-07-02T01:56:25;9.63;;;6.38;;
45642;SDS011;31358;46.008;11.144;2023-07-02T01:58:51;7.95;;;5.75;;
45642;SDS011;31358;46.008;11.144;2023-07-02T02:01:17;7.70;;;5.72;;
45642;SDS011;31358;46.008;11.144;2023-07-02T02:03:43;7.75;;;6.07;;
45642;SDS011;31358;46.008;11.144;2023-07-02T02:06:09;10.60;;;6.78;;
45642;SDS011;31358;46.008;11.144;2023-07-02T02:08:35;10.40;;;6.18;;
45642;SDS011;31358;46.008;11.144;2023-07-02T02:11:00;10.00;;;6.07;;
45642;SDS011;31358;46.008;11.144;2023-07-02T02:13:26;7.75;;;5.32;;
45642;SDS011;31358;46.008;11.144;2023-07-02T02:15:53;9.60;;;5.90;;
45642;SDS011;31358;46.008;11.144;2023-07-02T02:18:19;9.07;;;6.38;;
45642;SDS011;31358;46.008;11.144;2023-07-02T02:20:45;7.65;;;6.30;;
45642;SDS011;31358;46.008;11.144;2023-07-02T02:23:10;13.88;;;7.10;;
45642;SDS011;31358;46.008;11.144;2023-07-02T02:25:36;12.18;;;7.25;;
45642;SDS011;31358;46.008;11.144;2023-07-02T02:28:02;11.02;;;6.97;;
45642;SDS011;31358;46.008;11.144;2023-07-02T02:30:27;10.23;;;6.70;;
45642;SDS011;31358;46.008;11.144;2023-07-02T02:32:53;10.63;;;6.82;;
45642;SDS011;31358;46.008;11.144;2023-07-02T02:35:19;9.85;;;7.07;;
45642;SDS011;31358;46.008;11.144;2023-07-02T02:37:45;11.23;;;7.15;;
45642;SDS011;31358;46.008;11.144;2023-07-02T02:40:10;12.75;;;7.25;;
45642;SDS011;31358;46.008;11.144;2023-07-02T02:42:37;8.23;;;6.15;;
45642;SDS011;31358;46.008;11.144;2023-07-02T02:45:04;10.25;;;6.25;;
45642;SDS011;31358;46.008;11.144;2023-07-02T02:47:30;8.27;;;6.03;;
45642;SDS011;31358;46.008;11.144;2023-07-02T02:49:55;8.77;;;6.28;;
45642;SDS011;31358;46.008;11.144;2023-07-02T02:52:21;9.55;;;6.45;;
45642;SDS011;31358;46.008;11.144;2023-07-02T02:54:47;10.07;;;6.40;;
45642;SDS011;31358;46.008;11.144;2023-07-02T02:57:13;9.80;;;6.93;;
45642;SDS011;31358;46.008;11.144;2023-07-02T02:59:38;11.57;;;7.28;;
45642;SDS011;31358;46.008;11.144;2023-07-02T03:02:04;10.02;;;6.97;;
45642;SDS011;31358;46.008;11.144;2023-07-02T03:04:30;8.90;;;6.30;;
45642;SDS011;31358;46.008;11.144;2023-07-02T03:06:56;11.45;;;6.85;;
45642;SDS011;31358;46.008;11.144;2023-07-02T03:09:21;9.95;;;6.55;;
45642;SDS011;31358;46.008;11.144;2023-07-02T03:11:47;8.93;;;6.22;;
45642;SDS011;31358;46.008;11.144;2023-07-02T03:14:13;8.73;;;5.90;;
45642;SDS011;31358;46.008;11.144;2023-07-02T03:16:43;7.95;;;5.97;;
45642;SDS011;31358;46.008;11.144;2023-07-02T03:19:10;9.68;;;6.47;;
45642;SDS011;31358;46.008;11.144;2023-07-02T03:21:36;11.57;;;7.00;;
45642;SDS011;31358;46.008;11.144;2023-07-02T03:24:01;10.45;;;6.20;;
45642;SDS011;31358;46.008;11.144;2023-07-02T03:26:27;9.15;;;6.28;;
45642;SDS011;31358;46.008;11.144;2023-07-02T03:28:53;13.32;;;6.63;;
45642;SDS011;31358;46.008;11.144;2023-07-02T03:31:18;14.52;;;6.95;;
45642;SDS011;31358;46.008;11.144;2023-07-02T03:33:44;10.32;;;7.55;;
45642;SDS011;31358;46.008;11.144;2023-07-02T03:36:10;10.60;;;6.47;;
45642;SDS011;31358;46.008;11.144;2023-07-02T03:38:35;10.70;;;6.68;;
45642;SDS011;31358;46.008;11.144;2023-07-02T03:41:01;8.35;;;6.07;;
45642;SDS011;31358;46.008;11.144;2023-07-02T03:43:27;9.25;;;6.63;;
45642;SDS011;31358;46.008;11.144;2023-07-02T03:45:52;8.70;;;6.55;;
45642;SDS011;31358;46.008;11.144;2023-07-02T03:48:18;10.07;;;6.85;;
45642;SDS011;31358;46.008;11.144;2023-07-02T03:50:44;11.10;;;6.20;;
45642;SDS011;31358;46.008;11.144;2023-07-02T03:53:09;8.80;;;5.72;;
45642;SDS011;31358;46.008;11.144;2023-07-02T03:55:35;8.38;;;5.88;;
45642;SDS011;31358;46.008;11.144;2023-07-02T03:58:01;12.77;;;7.03;;
45642;SDS011;31358;46.008;11.144;2023-07-02T04:00:26;11.15;;;6.65;;
45642;SDS011;31358;46.008;11.144;2023-07-02T04:02:52;9.65;;;8.10;;
45642;SDS011;31358;46.008;11.144;2023-07-02T04:05:18;11.32;;;6.88;;
45642;SDS011;31358;46.008;11.144;2023-07-02T04:07:45;9.20;;;7.05;;
45642;SDS011;31358;46.008;11.144;2023-07-02T04:10:10;13.80;;;7.45;;
45642;SDS011;31358;46.008;11.144;2023-07-02T04:12:36;11.07;;;6.88;;
45642;SDS011;31358;46.008;11.144;2023-07-02T04:15:02;8.75;;;6.32;;
45642;SDS011;31358;46.008;11.144;2023-07-02T04:17:28;11.55;;;8.43;;
45642;SDS011;31358;46.008;11.144;2023-07-02T04:19:54;11.35;;;7.13;;
45642;SDS011;31358;46.008;11.144;2023-07-02T04:22:20;9.57;;;7.50;;
45642;SDS011;31358;46.008;11.144;2023-07-02T04:24:46;8.70;;;7.00;;
45642;SDS011;31358;46.008;11.144;2023-07-02T04:27:14;12.45;;;6.88;;
45642;SDS011;31358;46.008;11.144;2023-07-02T04:29:42;9.77;;;6.85;;
45642;SDS011;31358;46.008;11.144;2023-07-02T04:32:08;10.48;;;6.30;;
45642;SDS011;31358;46.008;11.144;2023-07-02T04:34:34;8.73;;;6.45;;
45642;SDS011;31358;46.008;11.144;2023-07-02T04:37:01;9.00;;;5.88;;
45642;SDS011;31358;46.008;11.144;2023-07-02T04:39:30;8.65;;;6.70;;
45642;SDS011;31358;46.008;11.144;2023-07-02T04:41:56;9.75;;;7.03;;
45642;SDS011;31358;46.008;11.144;2023-07-02T04:44:22;9.63;;;6.50;;
45642;SDS011;31358;46.008;11.144;2023-07-02T04:46:55;9.57;;;6.72;;
45642;SDS011;31358;46.008;11.144;2023-07-02T04:49:24;7.80;;;6.13;;
45642;SDS011;31358;46.008;11.144;2023-07-02T04:51:50;10.07;;;6.45;;
45642;SDS011;31358;46.008;11.144;2023-07-02T04:54:16;8.68;;;6.57;;
45642;SDS011;31358;46.008;11.144;2023-07-02T04:56:41;8.52;;;6.43;;
45642;SDS011;31358;46.008;11.144;2023-07-02T04:59:07;9.20;;;7.45;;
45642;SDS011;31358;46.008;11.144;2023-07-02T05:01:33;9.70;;;7.47;;
45642;SDS011;31358;46.008;11.144;2023-07-02T05:03:58;9.18;;;6.88;;
45642;SDS011;31358;46.008;11.144;2023-07-02T05:06:24;11.32;;;7.63;;
45642;SDS011;31358;46.008;11.144;2023-07-02T05:08:49;8.80;;;7.03;;
45642;SDS011;31358;46.008;11.144;2023-07-02T05:11:15;10.40;;;7.72;;
45642;SDS011;31358;46.008;11.144;2023-07-02T05:13:41;8.88;;;6.13;;
45642;SDS011;31358;46.008;11.144;2023-07-02T05:16:06;10.93;;;7.05;;
45642;SDS011;31358;46.008;11.144;2023-07-02T05:18:32;9.82;;;7.65;;
45642;SDS011;31358;46.008;11.144;2023-07-02T05:20:58;11.18;;;7.93;;
45642;SDS011;31358;46.008;11.144;2023-07-02T05:23:24;9.00;;;6.93;;
45642;SDS011;31358;46.008;11.144;2023-07-02T05:25:49;11.77;;;8.07;;
45642;SDS011;31358;46.008;11.144;2023-07-02T05:28:15;9.77;;;7.50;;
45642;SDS011;31358;46.008;11.144;2023-07-02T05:30:41;10.45;;;7.18;;
45642;SDS011;31358;46.008;11.144;2023-07-02T05:33:06;13.55;;;8.05;;
45642;SDS011;31358;46.008;11.144;2023-07-02T05:35:32;8.93;;;7.60;;
45642;SDS011;31358;46.008;11.144;2023-07-02T05:37:57;9.98;;;7.45;;
45642;SDS011;31358;46.008;11.144;2023-07-02T05:40:23;9.35;;;7.70;;
45642;SDS011;31358;46.008;11.144;2023-07-02T05:42:49;10.07;;;7.65;;
45642;SDS011;31358;46.008;11.144;2023-07-02T05:45:14;7.45;;;6.00;;
45642;SDS011;31358;46.008;11.144;2023-07-02T05:47:40;9.20;;;6.72;;
45642;SDS011;31358;46.008;11.144;2023-07-02T05:50:07;9.75;;;6.65;;
45642;SDS011;31358;46.008;11.144;2023-07-02T05:52:33;9.00;;;6.85;;
45642;SDS011;31358;46.008;11.144;2023-07-02T05:54:58;11.30;;;6.50;;
45642;SDS011;31358;46.008;11.144;2023-07-02T05:57:24;9.07;;;6.60;;
45642;SDS011;31358;46.008;11.144;2023-07-02T05:59:50;9.88;;;6.88;;
45642;SDS011;31358;46.008;11.144;2023-07-02T06:02:15;9.55;;;6.70;;
45642;SDS011;31358;46.008;11.144;2023-07-02T06:04:41;9.60;;;6.72;;
45642;SDS011;31358;46.008;11.144;2023-07-02T06:07:07;9.25;;;7.22;;
45642;SDS011;31358;46.008;11.144;2023-07-02T06:09:32;10.73;;;6.97;;
45642;SDS011;31358;46.008;11.144;2023-07-02T06:11:58;7.97;;;6.15;;
45642;SDS011;31358;46.008;11.144;2023-07-02T06:14:24;8.55;;;6.70;;
45642;SDS011;31358;46.008;11.144;2023-07-02T06:16:50;10.65;;;6.72;;
45642;SDS011;31358;46.008;11.144;2023-07-02T06:19:17;10.40;;;7.82;;
45642;SDS011;31358;46.008;11.144;2023-07-02T06:21:43;9.48;;;6.50;;
45642;SDS011;31358;46.008;11.144;2023-07-02T06:24:08;8.20;;;6.78;;
45642;SDS011;31358;46.008;11.144;2023-07-02T06:26:34;8.73;;;7.30;;
45642;SDS011;31358;46.008;11.144;2023-07-02T06:29:00;9.70;;;7.82;;
45642;SDS011;31358;46.008;11.144;2023-07-02T06:31:26;11.68;;;7.78;;
45642;SDS011;31358;46.008;11.144;2023-07-02T06:33:51;9.02;;;6.38;;
45642;SDS011;31358;46.008;11.144;2023-07-02T06:36:17;11.05;;;6.53;;
45642;SDS011;31358;46.008;11.144;2023-07-02T06:38:44;9.05;;;6.32;;
45642;SDS011;31358;46.008;11.144;2023-07-02T06:41:09;9.55;;;7.93;;
45642;SDS011;31358;46.008;11.144;2023-07-02T06:43:35;9.73;;;6.53;;
45642;SDS011;31358;46.008;11.144;2023-07-02T06:46:01;9.48;;;7.22;;
45642;SDS011;31358;46.008;11.144;2023-07-02T06:48:27;8.52;;;6.90;;
45642;SDS011;31358;46.008;11.144;2023-07-02T06:50:52;9.98;;;7.15;;
45642;SDS011;31358;46.008;11.144;2023-07-02T06:53:18;8.13;;;6.70;;
45642;SDS011;31358;46.008;11.144;2023-07-02T06:55:44;8.60;;;6.85;;
45642;SDS011;31358;46.008;11.144;2023-07-02T06:58:09;9.63;;;7.07;;
45642;SDS011;31358;46.008;11.144;2023-07-02T07:00:35;8.95;;;7.35;;
45642;SDS011;31358;46.008;11.144;2023-07-02T07:03:04;10.05;;;6.45;;
45642;SDS011;31358;46.008;11.144;2023-07-02T07:05:30;10.50;;;7.03;;
45642;SDS011;31358;46.008;11.144;2023-07-02T07:07:56;9.13;;;6.97;;
45642;SDS011;31358;46.008;11.144;2023-07-02T07:10:23;9.10;;;6.65;;
45642;SDS011;31358;46.008;11.144;2023-07-02T07:12:48;9.20;;;6.45;;
45642;SDS011;31358;46.008;11.144;2023-07-02T07:15:14;10.63;;;7.22;;
45642;SDS011;31358;46.008;11.144;2023-07-02T07:17:40;13.60;;;7.13;;
45642;SDS011;31358;46.008;11.144;2023-07-02T07:20:05;8.57;;;6.75;;
45642;SDS011;31358;46.008;11.144;2023-07-02T07:22:31;8.05;;;6.90;;
45642;SDS011;31358;46.008;11.144;2023-07-02T07:24:58;8.30;;;6.32;;
45642;SDS011;31358;46.008;11.144;2023-07-02T07:27:23;8.27;;;6.47;;
45642;SDS011;31358;46.008;11.144;2023-07-02T07:29:49;9.52;;;6.47;;
45642;SDS011;31358;46.008;11.144;2023-07-02T07:32:15;9.88;;;7.03;;
45642;SDS011;31358;46.008;11.144;2023-07-02T07:34:41;9.15;;;7.03;;
45642;SDS011;31358;46.008;11.144;2023-07-02T07:37:07;9.05;;;7.47;;
45642;SDS011;31358;46.008;11.144;2023-07-02T07:39:33;8.02;;;6.38;;
45642;SDS011;31358;46.008;11.144;2023-07-02T07:42:00;8.90;;;6.70;;
45642;SDS011;31358;46.008;11.144;2023-07-02T07:44:26;8.65;;;6.25;;
45642;SDS011;31358;46.008;11.144;2023-07-02T07:46:55;8.85;;;6.68;;
45642;SDS011;31358;46.008;11.144;2023-07-02T07:49:21;8.65;;;6.72;;
45642;SDS011;31358;46.008;11.144;2023-07-02T07:51:47;8.68;;;6.82;;
45642;SDS011;31358;46.008;11.144;2023-07-02T07:54:13;8.55;;;6.45;;
45642;SDS011;31358;46.008;11.144;2023-07-02T07:56:39;8.13;;;6.70;;
45642;SDS011;31358;46.008;11.144;2023-07-02T07:59:05;10.57;;;7.18;;
45642;SDS011;31358;46.008;11.144;2023-07-02T08:01:30;9.00;;;7.28;;
45642;SDS011;31358;46.008;11.144;2023-07-02T08:03:56;9.75;;;6.60;;
45642;SDS011;31358;46.008;11.144;2023-07-02T08:06:22;9.32;;;6.53;;
45642;SDS011;31358;46.008;11.144;2023-07-02T08:08:47;7.95;;;6.70;;
45642;SDS011;31358;46.008;11.144;2023-07-02T08:11:13;7.95;;;6.32;;
45642;SDS011;31358;46.008;11.144;2023-07-02T08:13:39;8.73;;;6.75;;
45642;SDS011;31358;46.008;11.144;2023-07-02T08:16:04;11.10;;;7.03;;
45642;SDS011;31358;46.008;11.144;2023-07-02T08:18:30;9.63;;;7.00;;
45642;SDS011;31358;46.008;11.144;2023-07-02T08:20:56;7.97;;;6.63;;
45642;SDS011;31358;46.008;11.144;2023-07-02T08:23:21;8.68;;;7.40;;
45642;SDS011;31358;46.008;11.144;2023-07-02T08:25:47;8.55;;;7.05;;
45642;SDS011;31358;46.008;11.144;2023-07-02T08:28:13;8.43;;;6.60;;
45642;SDS011;31358;46.008;11.144;2023-07-02T08:30:38;7.32;;;6.35;;
45642;SDS011;31358;46.008;11.144;2023-07-02T08:33:04;8.63;;;6.80;;
45642;SDS011;31358;46.008;11.144;2023-07-02T08:35:30;7.95;;;6.20;;
45642;SDS011;31358;46.008;11.144;2023-07-02T08:37:55;8.23;;;5.55;;
45642;SDS011;31358;46.008;11.144;2023-07-02T08:40:21;10.07;;;6.13;;
45642;SDS011;31358;46.008;11.144;2023-07-02T08:42:47;7.45;;;6.32;;
45642;SDS011;31358;46.008;11.144;2023-07-02T08:45:14;7.65;;;5.97;;
45642;SDS011;31358;46.008;11.144;2023-07-02T08:47:44;9.20;;;6.53;;
45642;SDS011;31358;46.008;11.144;2023-07-02T08:50:11;7.88;;;6.47;;
45642;SDS011;31358;46.008;11.144;2023-07-02T08:52:38;9.27;;;6.43;;
45642;SDS011;31358;46.008;11.144;2023-07-02T08:55:04;8.13;;;6.10;;
45642;SDS011;31358;46.008;11.144;2023-07-02T08:57:30;6.85;;;5.78;;
45642;SDS011;31358;46.008;11.144;2023-07-02T08:59:56;11.15;;;6.68;;
45642;SDS011;31358;46.008;11.144;2023-07-02T09:02:33;7.68;;;6.35;;
45642;SDS011;31358;46.008;11.144;2023-07-02T09:05:00;7.65;;;5.63;;
45642;SDS011;31358;46.008;11.144;2023-07-02T09:07:27;6.80;;;5.50;;
45642;SDS011;31358;46.008;11.144;2023-07-02T09:09:52;9.05;;;6.15;;
45642;SDS011;31358;46.008;11.144;2023-07-02T09:12:22;7.70;;;5.97;;
45642;SDS011;31358;46.008;11.144;2023-07-02T09:15:01;9.40;;;6.00;;
45642;SDS011;31358;46.008;11.144;2023-07-02T09:17:31;8.02;;;6.30;;
45642;SDS011;31358;46.008;11.144;2023-07-02T09:19:59;6.97;;;5.93;;
45642;SDS011;31358;46.008;11.144;2023-07-02T09:22:26;6.88;;;5.05;;
45642;SDS011;31358;46.008;11.144;2023-07-02T09:24:52;7.00;;;5.10;;
45642;SDS011;31358;46.008;11.144;2023-07-02T09:27:20;9.85;;;5.10;;
45642;SDS011;31358;46.008;11.144;2023-07-02T09:29:49;6.55;;;4.65;;
45642;SDS011;31358;46.008;11.144;2023-07-02T09:32:25;7.82;;;5.15;;
45642;SDS011;31358;46.008;11.144;2023-07-02T09:34:54;6.68;;;5.20;;
45642;SDS011;31358;46.008;11.144;2023-07-02T09:37:21;17.52;;;5.60;;
45642;SDS011;31358;46.008;11.144;2023-07-02T09:39:48;15.70;;;5.72;;
45642;SDS011;31358;46.008;11.144;2023-07-02T09:42:17;12.20;;;4.80;;
45642;SDS011;31358;46.008;11.144;2023-07-02T09:44:45;5.55;;;4.35;;
45642;SDS011;31358;46.008;11.144;2023-07-02T09:47:11;7.80;;;4.28;;
45642;SDS011;31358;46.008;11.144;2023-07-02T09:49:38;7.97;;;5.10;;
45642;SDS011;31358;46.008;11.144;2023-07-02T09:52:07;6.55;;;5.03;;
45642;SDS011;31358;46.008;11.144;2023-07-02T09:54:37;6.88;;;4.70;;
45642;SDS011;31358;46.008;11.144;2023-07-02T09:57:03;10.07;;;5.25;;
45642;SDS011;31358;46.008;11.144;2023-07-02T09:59:31;6.28;;;4.57;;
45642;SDS011;31358;46.008;11.144;2023-07-02T10:01:56;7.25;;;4.68;;
45642;SDS011;31358;46.008;11.144;2023-07-02T10:04:23;9.55;;;4.90;;
45642;SDS011;31358;46.008;11.144;2023-07-02T10:06:54;7.10;;;6.00;;
45642;SDS011;31358;46.008;11.144;2023-07-02T10:09:21;7.50;;;5.53;;
45642;SDS011;31358;46.008;11.144;2023-07-02T10:11:59;6.60;;;5.22;;
45642;SDS011;31358;46.008;11.144;2023-07-02T10:14:25;7.30;;;5.53;;
45642;SDS011;31358;46.008;11.144;2023-07-02T10:16:54;8.70;;;4.72;;
45642;SDS011;31358;46.008;11.144;2023-07-02T10:19:21;7.82;;;5.10;;
45642;SDS011;31358;46.008;11.144;2023-07-02T10:21:47;7.72;;;5.30;;
45642;SDS011;31358;46.008;11.144;2023-07-02T10:24:29;6.05;;;4.20;;
45642;SDS011;31358;46.008;11.144;2023-07-02T10:26:56;5.47;;;4.28;;
45642;SDS011;31358;46.008;11.144;2023-07-02T10:29:25;7.40;;;3.92;;
45642;SDS011;31358;46.008;11.144;2023-07-02T10:31:52;6.90;;;3.97;;
45642;SDS011;31358;46.008;11.144;2023-07-02T10:34:30;5.40;;;3.88;;
45642;SDS011;31358;46.008;11.144;2023-07-02T10:37:03;5.93;;;4.32;;
45642;SDS011;31358;46.008;11.144;2023-07-02T10:39:29;6.70;;;4.32;;
45642;SDS011;31358;46.008;11.144;2023-07-02T10:44:31;6.20;;;4.75;;
45642;SDS011;31358;46.008;11.144;2023-07-02T10:46:57;6.72;;;5.47;;
45642;SDS011;31358;46.008;11.144;2023-07-02T10:49:29;6.68;;;5.07;;
45642;SDS011;31358;46.008;11.144;2023-07-02T10:51:56;6.82;;;5.38;;
45642;SDS011;31358;46.008;11.144;2023-07-02T10:54:23;7.25;;;5.53;;
45642;SDS011;31358;46.008;11.144;2023-07-02T10:56:48;6.88;;;5.15;;
45642;SDS011;31358;46.008;11.144;2023-07-02T10:59:24;6.38;;;5.28;;
45642;SDS011;31358;46.008;11.144;2023-07-02T11:01:50;8.20;;;5.53;;
45642;SDS011;31358;46.008;11.144;2023-07-02T11:04:16;8.82;;;5.95;;
45642;SDS011;31358;46.008;11.144;2023-07-02T11:06:42;6.78;;;5.60;;
45642;SDS011;31358;46.008;11.144;2023-07-02T11:09:17;8.73;;;6.00;;
45642;SDS011;31358;46.008;11.144;2023-07-02T11:11:51;10.18;;;5.53;;
45642;SDS011;31358;46.008;11.144;2023-07-02T11:16:56;6.68;;;4.93;;
45642;SDS011;31358;46.008;11.144;2023-07-02T11:19:28;6.30;;;3.63;;
45642;SDS011;31358;46.008;11.144;2023-07-02T11:21:55;6.90;;;4.78;;
45642;SDS011;31358;46.008;11.144;2023-07-02T11:24:30;6.78;;;5.10;;
45642;SDS011;31358;46.008;11.144;2023-07-02T11:26:56;7.88;;;5.10;;
45642;SDS011;31358;46.008;11.144;2023-07-02T11:29:22;6.75;;;5.03;;
45642;SDS011;31358;46.008;11.144;2023-07-02T11:31:48;7.95;;;4.88;;
45642;SDS011;31358;46.008;11.144;2023-07-02T11:34:18;7.32;;;5.82;;
45642;SDS011;31358;46.008;11.144;2023-07-02T11:36:45;6.15;;;4.80;;
45642;SDS011;31358;46.008;11.144;2023-07-02T11:39:11;6.43;;;4.72;;
45642;SDS011;31358;46.008;11.144;2023-07-02T11:41:37;8.00;;;5.60;;
45642;SDS011;31358;46.008;11.144;2023-07-02T11:44:04;7.18;;;5.35;;
45642;SDS011;31358;46.008;11.144;2023-07-02T11:46:29;6.80;;;5.15;;
45642;SDS011;31358;46.008;11.144;2023-07-02T11:48:55;6.80;;;5.00;;
45642;SDS011;31358;46.008;11.144;2023-07-02T11:51:21;6.60;;;5.30;;
45642;SDS011;31358;46.008;11.144;2023-07-02T11:53:47;8.10;;;5.60;;
45642;SDS011;31358;46.008;11.144;2023-07-02T11:56:12;6.70;;;5.50;;
45642;SDS011;31358;46.008;11.144;2023-07-02T11:58:39;6.18;;;4.78;;
45642;SDS011;31358;46.008;11.144;2023-07-02T12:01:05;7.38;;;5.60;;
45642;SDS011;31358;46.008;11.144;2023-07-02T12:03:31;7.50;;;5.85;;
45642;SDS011;31358;46.008;11.144;2023-07-02T12:05:57;8.93;;;5.50;;
45642;SDS011;31358;46.008;11.144;2023-07-02T12:08:22;7.15;;;5.40;;
45642;SDS011;31358;46.008;11.144;2023-07-02T12:10:48;6.80;;;5.53;;
45642;SDS011;31358;46.008;11.144;2023-07-02T12:13:14;9.75;;;5.57;;
45642;SDS011;31358;46.008;11.144;2023-07-02T12:15:40;10.13;;;5.60;;
45642;SDS011;31358;46.008;11.144;2023-07-02T12:18:05;8.50;;;5.32;;
45642;SDS011;31358;46.008;11.144;2023-07-02T12:20:31;7.00;;;5.70;;
45642;SDS011;31358;46.008;11.144;2023-07-02T12:22:57;7.25;;;5.40;;
45642;SDS011;31358;46.008;11.144;2023-07-02T12:25:23;10.30;;;5.75;;
45642;SDS011;31358;46.008;11.144;2023-07-02T12:27:48;8.45;;;5.45;;
45642;SDS011;31358;46.008;11.144;2023-07-02T12:30:14;7.25;;;5.45;;
45642;SDS011;31358;46.008;11.144;2023-07-02T12:32:42;6.88;;;5.18;;
45642;SDS011;31358;46.008;11.144;2023-07-02T12:35:09;7.65;;;5.35;;
45642;SDS011;31358;46.008;11.144;2023-07-02T12:37:35;6.68;;;5.60;;
45642;SDS011;31358;46.008;11.144;2023-07-02T12:40:07;7.30;;;5.57;;
45642;SDS011;31358;46.008;11.144;2023-07-02T12:42:33;7.45;;;5.78;;
45642;SDS011;31358;46.008;11.144;2023-07-02T12:44:59;9.80;;;6.18;;
45642;SDS011;31358;46.008;11.144;2023-07-02T12:47:24;7.13;;;5.13;;
45642;SDS011;31358;46.008;11.144;2023-07-02T12:49:50;9.60;;;5.57;;
45642;SDS011;31358;46.008;11.144;2023-07-02T12:52:16;7.50;;;5.05;;
45642;SDS011;31358;46.008;11.144;2023-07-02T12:54:41;7.18;;;5.35;;
45642;SDS011;31358;46.008;11.144;2023-07-02T12:57:07;7.63;;;5.75;;
45642;SDS011;31358;46.008;11.144;2023-07-02T12:59:33;7.30;;;5.78;;
45642;SDS011;31358;46.008;11.144;2023-07-02T13:01:59;9.52;;;5.30;;
45642;SDS011;31358;46.008;11.144;2023-07-02T13:04:24;9.80;;;5.88;;
45642;SDS011;31358;46.008;11.144;2023-07-02T13:06:50;8.93;;;6.22;;
45642;SDS011;31358;46.008;11.144;2023-07-02T13:09:16;9.15;;;5.13;;
45642;SDS011;31358;46.008;11.144;2023-07-02T13:11:41;7.68;;;5.78;;
45642;SDS011;31358;46.008;11.144;2023-07-02T13:14:07;7.57;;;5.95;;
45642;SDS011;31358;46.008;11.144;2023-07-02T13:16:33;6.85;;;5.53;;
45642;SDS011;31358;46.008;11.144;2023-07-02T13:18:58;7.47;;;5.47;;
45642;SDS011;31358;46.008;11.144;2023-07-02T13:21:26;6.90;;;5.50;;
45642;SDS011;31358;46.008;11.144;2023-07-02T13:23:52;6.07;;;4.90;;
45642;SDS011;31358;46.008;11.144;2023-07-02T13:26:18;8.63;;;5.80;;
45642;SDS011;31358;46.008;11.144;2023-07-02T13:28:45;7.82;;;5.70;;
45642;SDS011;31358;46.008;11.144;2023-07-02T13:31:13;10.52;;;5.75;;
45642;SDS011;31358;46.008;11.144;2023-07-02T13:33:39;9.10;;;5.32;;
45642;SDS011;31358;46.008;11.144;2023-07-02T13:36:05;7.07;;;5.65;;
45642;SDS011;31358;46.008;11.144;2023-07-02T13:38:31;9.38;;;5.60;;
45642;SDS011;31358;46.008;11.144;2023-07-02T13:40:57;9.90;;;6.00;;
45642;SDS011;31358;46.008;11.144;2023-07-02T13:43:23;9.93;;;5.85;;
45642;SDS011;31358;46.008;11.144;2023-07-02T13:45:49;7.25;;;5.10;;
45642;SDS011;31358;46.008;11.144;2023-07-02T13:48:15;6.90;;;5.32;;
45642;SDS011;31358;46.008;11.144;2023-07-02T13:50:41;7.68;;;5.68;;
45642;SDS011;31358;46.008;11.144;2023-07-02T13:53:07;8.05;;;6.10;;
45642;SDS011;31358;46.008;11.144;2023-07-02T13:55:33;8.57;;;5.60;;
45642;SDS011;31358;46.008;11.144;2023-07-02T13:57:59;9.27;;;5.18;;
45642;SDS011;31358;46.008;11.144;2023-07-02T14:00:28;7.38;;;5.65;;
45642;SDS011;31358;46.008;11.144;2023-07-02T14:02:55;7.68;;;6.00;;
45642;SDS011;31358;46.008;11.144;2023-07-02T14:05:21;10.63;;;5.60;;
45642;SDS011;31358;46.008;11.144;2023-07-02T14:07:47;9.40;;;5.70;;
45642;SDS011;31358;46.008;11.144;2023-07-02T14:10:13;8.90;;;6.28;;
45642;SDS011;31358;46.008;11.144;2023-07-02T14:12:40;7.47;;;5.43;;
45642;SDS011;31358;46.008;11.144;2023-07-02T14:15:07;9.35;;;5.97;;
45642;SDS011;31358;46.008;11.144;2023-07-02T14:17:34;9.82;;;5.82;;
45642;SDS011;31358;46.008;11.144;2023-07-02T14:20:00;8.90;;;6.50;;
45642;SDS011;31358;46.008;11.144;2023-07-02T14:22:27;17.60;;;6.75;;
45642;SDS011;31358;46.008;11.144;2023-07-02T14:24:52;10.57;;;6.57;;
45642;SDS011;31358;46.008;11.144;2023-07-02T14:27:18;10.05;;;6.35;;
45642;SDS011;31358;46.008;11.144;2023-07-02T14:29:44;9.13;;;5.55;;
45642;SDS011;31358;46.008;11.144;2023-07-02T14:32:12;9.07;;;6.22;;
45642;SDS011;31358;46.008;11.144;2023-07-02T14:34:38;8.20;;;5.95;;
45642;SDS011;31358;46.008;11.144;2023-07-02T14:37:04;7.22;;;5.47;;